<?xml version="1.0" encoding="UTF-8" standalone="no" ?>
<gpx xmlns="http://www.topografix.com/GPX/1/1" xmlns:xsi="http://www.w3.org/2001/XMLSchema-instance" xsi:schemaLocation="http://www.topografix.com/GPX/1/1 http://www.topografix.com/GPX/1/1/gpx.xsd" version="1.1" creator="VisuGPX - https://www.visugpx.com">
  <metadata>
    <name>Tour de France 2019</name>
    <desc><![CDATA[4272km en 2 mois en tandem avec notre petit chien dans le panier avant]]></desc>
  </metadata>
  <trk>
    <name><![CDATA[Tracé 20191021-070715]]></name>
    <trkseg>
      <trkpt lat="43.11708" lon="5.93384">
        <ele>3</ele>
        <time>2019-10-21T05:07:27Z</time>
      </trkpt>
      <trkpt lat="43.11783" lon="5.93374">
        <ele>3</ele>
        <time>2019-10-21T05:09:25Z</time>
      </trkpt>
      <trkpt lat="43.11743" lon="5.93411">
        <ele>3</ele>
        <time>2019-10-21T05:10:01Z</time>
      </trkpt>
      <trkpt lat="43.11761" lon="5.93428">
        <ele>3.1</ele>
        <time>2019-10-21T05:10:40Z</time>
      </trkpt>
      <trkpt lat="43.11726" lon="5.93507">
        <ele>9.884</ele>
        <time>2019-10-21T05:11:10Z</time>
      </trkpt>
      <trkpt lat="43.11769" lon="5.93557">
        <ele>8.936</ele>
        <time>2019-10-21T05:11:43Z</time>
      </trkpt>
      <trkpt lat="43.11742" lon="5.93603">
        <ele>15.105</ele>
        <time>2019-10-21T05:15:13Z</time>
      </trkpt>
      <trkpt lat="43.11747" lon="5.93595">
        <ele>16.572</ele>
        <time>2019-10-21T05:17:34Z</time>
      </trkpt>
      <trkpt lat="43.1183" lon="5.93701">
        <ele>14.293</ele>
        <time>2019-10-21T05:18:10Z</time>
      </trkpt>
      <trkpt lat="43.11934" lon="5.93809">
        <ele>41.304</ele>
        <time>2019-10-21T05:18:40Z</time>
      </trkpt>
      <trkpt lat="43.11969" lon="5.93892">
        <ele>50.049</ele>
        <time>2019-10-21T05:19:19Z</time>
      </trkpt>
      <trkpt lat="43.12046" lon="5.93974">
        <ele>69.442</ele>
        <time>2019-10-21T05:19:52Z</time>
      </trkpt>
      <trkpt lat="43.12108" lon="5.94104">
        <ele>53.195</ele>
        <time>2019-10-21T05:20:25Z</time>
      </trkpt>
      <trkpt lat="43.12113" lon="5.94239">
        <ele>18.819</ele>
        <time>2019-10-21T05:21:01Z</time>
      </trkpt>
      <trkpt lat="43.12074" lon="5.94423">
        <ele>13.461</ele>
        <time>2019-10-21T05:21:34Z</time>
      </trkpt>
      <trkpt lat="43.12029" lon="5.94606">
        <ele>19.485</ele>
        <time>2019-10-21T05:22:07Z</time>
      </trkpt>
      <trkpt lat="43.11968" lon="5.94714">
        <ele>8.86</ele>
        <time>2019-10-21T05:22:40Z</time>
      </trkpt>
      <trkpt lat="43.11989" lon="5.94862">
        <ele>5.3</ele>
        <time>2019-10-21T05:23:13Z</time>
      </trkpt>
      <trkpt lat="43.12001" lon="5.95023">
        <ele>7.04</ele>
        <time>2019-10-21T05:23:43Z</time>
      </trkpt>
      <trkpt lat="43.12046" lon="5.95191">
        <ele>11.402</ele>
        <time>2019-10-21T05:24:16Z</time>
      </trkpt>
      <trkpt lat="43.12094" lon="5.95338">
        <ele>12.538</ele>
        <time>2019-10-21T05:24:46Z</time>
      </trkpt>
      <trkpt lat="43.12157" lon="5.9548">
        <ele>18.896</ele>
        <time>2019-10-21T05:25:19Z</time>
      </trkpt>
      <trkpt lat="43.122" lon="5.95617">
        <ele>16.629</ele>
        <time>2019-10-21T05:25:49Z</time>
      </trkpt>
      <trkpt lat="43.12255" lon="5.95777">
        <ele>14.482</ele>
        <time>2019-10-21T05:26:22Z</time>
      </trkpt>
      <trkpt lat="43.12313" lon="5.95943">
        <ele>16.972</ele>
        <time>2019-10-21T05:26:55Z</time>
      </trkpt>
      <trkpt lat="43.12332" lon="5.96078">
        <ele>21.206</ele>
        <time>2019-10-21T05:27:25Z</time>
      </trkpt>
      <trkpt lat="43.12296" lon="5.96241">
        <ele>27.564</ele>
        <time>2019-10-21T05:27:58Z</time>
      </trkpt>
      <trkpt lat="43.12215" lon="5.96393">
        <ele>36.467</ele>
        <time>2019-10-21T05:28:28Z</time>
      </trkpt>
      <trkpt lat="43.12275" lon="5.96607">
        <ele>28.852</ele>
        <time>2019-10-21T05:29:01Z</time>
      </trkpt>
      <trkpt lat="43.12192" lon="5.9674">
        <ele>26.583</ele>
        <time>2019-10-21T05:29:31Z</time>
      </trkpt>
      <trkpt lat="43.12047" lon="5.96837">
        <ele>27.351</ele>
        <time>2019-10-21T05:30:04Z</time>
      </trkpt>
      <trkpt lat="43.11926" lon="5.9695">
        <ele>31.442</ele>
        <time>2019-10-21T05:30:34Z</time>
      </trkpt>
      <trkpt lat="43.11801" lon="5.9707">
        <ele>29.263</ele>
        <time>2019-10-21T05:31:07Z</time>
      </trkpt>
      <trkpt lat="43.11715" lon="5.97235">
        <ele>30.185</ele>
        <time>2019-10-21T05:31:40Z</time>
      </trkpt>
      <trkpt lat="43.11673" lon="5.97433">
        <ele>29.983</ele>
        <time>2019-10-21T05:32:10Z</time>
      </trkpt>
      <trkpt lat="43.11608" lon="5.97643">
        <ele>18.797</ele>
        <time>2019-10-21T05:32:43Z</time>
      </trkpt>
      <trkpt lat="43.11584" lon="5.9783">
        <ele>25.645</ele>
        <time>2019-10-21T05:33:13Z</time>
      </trkpt>
      <trkpt lat="43.11542" lon="5.98045">
        <ele>27.193</ele>
        <time>2019-10-21T05:33:46Z</time>
      </trkpt>
      <trkpt lat="43.1155" lon="5.98153">
        <ele>31.919</ele>
        <time>2019-10-21T05:34:16Z</time>
      </trkpt>
      <trkpt lat="43.1152" lon="5.98316">
        <ele>28.928</ele>
        <time>2019-10-21T05:34:49Z</time>
      </trkpt>
      <trkpt lat="43.11441" lon="5.98442">
        <ele>26.03</ele>
        <time>2019-10-21T05:35:19Z</time>
      </trkpt>
      <trkpt lat="43.11352" lon="5.98568">
        <ele>28.41</ele>
        <time>2019-10-21T05:35:52Z</time>
      </trkpt>
      <trkpt lat="43.11271" lon="5.9871">
        <ele>29.252</ele>
        <time>2019-10-21T05:36:25Z</time>
      </trkpt>
      <trkpt lat="43.11207" lon="5.98914">
        <ele>31.696</ele>
        <time>2019-10-21T05:36:55Z</time>
      </trkpt>
      <trkpt lat="43.11175" lon="5.99146">
        <ele>29.966</ele>
        <time>2019-10-21T05:37:28Z</time>
      </trkpt>
      <trkpt lat="43.11165" lon="5.99346">
        <ele>25.293</ele>
        <time>2019-10-21T05:37:58Z</time>
      </trkpt>
      <trkpt lat="43.11124" lon="5.99489">
        <ele>32.254</ele>
        <time>2019-10-21T05:38:31Z</time>
      </trkpt>
      <trkpt lat="43.11084" lon="5.99599">
        <ele>36.525</ele>
        <time>2019-10-21T05:39:01Z</time>
      </trkpt>
      <trkpt lat="43.11032" lon="5.99737">
        <ele>39.03</ele>
        <time>2019-10-21T05:39:34Z</time>
      </trkpt>
      <trkpt lat="43.10975" lon="5.99887">
        <ele>41.306</ele>
        <time>2019-10-21T05:40:04Z</time>
      </trkpt>
      <trkpt lat="43.10937" lon="6.0005">
        <ele>43.151</ele>
        <time>2019-10-21T05:40:37Z</time>
      </trkpt>
      <trkpt lat="43.10916" lon="6.00268">
        <ele>37.391</ele>
        <time>2019-10-21T05:41:07Z</time>
      </trkpt>
      <trkpt lat="43.1088" lon="6.00462">
        <ele>29.927</ele>
        <time>2019-10-21T05:41:40Z</time>
      </trkpt>
      <trkpt lat="43.10861" lon="6.00674">
        <ele>32.667</ele>
        <time>2019-10-21T05:42:13Z</time>
      </trkpt>
      <trkpt lat="43.10854" lon="6.00859">
        <ele>34.983</ele>
        <time>2019-10-21T05:42:43Z</time>
      </trkpt>
      <trkpt lat="43.10855" lon="6.01064">
        <ele>45.733</ele>
        <time>2019-10-21T05:43:16Z</time>
      </trkpt>
      <trkpt lat="43.10877" lon="6.01241">
        <ele>44.016</ele>
        <time>2019-10-21T05:43:46Z</time>
      </trkpt>
      <trkpt lat="43.10984" lon="6.01451">
        <ele>29.848</ele>
        <time>2019-10-21T05:44:19Z</time>
      </trkpt>
      <trkpt lat="43.11062" lon="6.01631">
        <ele>27.086</ele>
        <time>2019-10-21T05:44:49Z</time>
      </trkpt>
      <trkpt lat="43.1094" lon="6.01654">
        <ele>26.588</ele>
        <time>2019-10-21T05:45:22Z</time>
      </trkpt>
      <trkpt lat="43.10805" lon="6.01646">
        <ele>33.858</ele>
        <time>2019-10-21T05:45:52Z</time>
      </trkpt>
      <trkpt lat="43.1075" lon="6.01776">
        <ele>35.752</ele>
        <time>2019-10-21T05:46:25Z</time>
      </trkpt>
      <trkpt lat="43.1088" lon="6.01933">
        <ele>38.925</ele>
        <time>2019-10-21T05:46:58Z</time>
      </trkpt>
      <trkpt lat="43.10876" lon="6.02146">
        <ele>30.793</ele>
        <time>2019-10-21T05:47:28Z</time>
      </trkpt>
      <trkpt lat="43.10803" lon="6.02311">
        <ele>30.117</ele>
        <time>2019-10-21T05:48:01Z</time>
      </trkpt>
      <trkpt lat="43.10721" lon="6.02426">
        <ele>34.677</ele>
        <time>2019-10-21T05:48:31Z</time>
      </trkpt>
      <trkpt lat="43.10687" lon="6.02541">
        <ele>35.886</ele>
        <time>2019-10-21T05:49:04Z</time>
      </trkpt>
      <trkpt lat="43.10694" lon="6.02665">
        <ele>35.817</ele>
        <time>2019-10-21T05:49:37Z</time>
      </trkpt>
      <trkpt lat="43.10719" lon="6.02836">
        <ele>39.204</ele>
        <time>2019-10-21T05:50:10Z</time>
      </trkpt>
      <trkpt lat="43.10765" lon="6.03017">
        <ele>38.158</ele>
        <time>2019-10-21T05:50:40Z</time>
      </trkpt>
      <trkpt lat="43.1079" lon="6.03175">
        <ele>42.079</ele>
        <time>2019-10-21T05:51:13Z</time>
      </trkpt>
      <trkpt lat="43.10808" lon="6.03352">
        <ele>40.001</ele>
        <time>2019-10-21T05:51:46Z</time>
      </trkpt>
      <trkpt lat="43.10864" lon="6.03506">
        <ele>38.177</ele>
        <time>2019-10-21T05:52:16Z</time>
      </trkpt>
      <trkpt lat="43.10906" lon="6.0373">
        <ele>35.218</ele>
        <time>2019-10-21T05:52:49Z</time>
      </trkpt>
      <trkpt lat="43.10876" lon="6.03887">
        <ele>37.807</ele>
        <time>2019-10-21T05:53:19Z</time>
      </trkpt>
      <trkpt lat="43.10875" lon="6.04104">
        <ele>41.755</ele>
        <time>2019-10-21T05:53:52Z</time>
      </trkpt>
      <trkpt lat="43.10897" lon="6.04298">
        <ele>43.958</ele>
        <time>2019-10-21T05:54:22Z</time>
      </trkpt>
      <trkpt lat="43.10888" lon="6.04524">
        <ele>38.824</ele>
        <time>2019-10-21T05:54:55Z</time>
      </trkpt>
      <trkpt lat="43.1084" lon="6.04703">
        <ele>39.69</ele>
        <time>2019-10-21T05:55:25Z</time>
      </trkpt>
      <trkpt lat="43.1077" lon="6.04904">
        <ele>34.566</ele>
        <time>2019-10-21T05:55:58Z</time>
      </trkpt>
      <trkpt lat="43.10684" lon="6.05075">
        <ele>36.328</ele>
        <time>2019-10-21T05:56:31Z</time>
      </trkpt>
      <trkpt lat="43.10584" lon="6.05203">
        <ele>42.634</ele>
        <time>2019-10-21T05:57:01Z</time>
      </trkpt>
      <trkpt lat="43.10465" lon="6.05349">
        <ele>42.519</ele>
        <time>2019-10-21T05:57:34Z</time>
      </trkpt>
      <trkpt lat="43.10365" lon="6.05475">
        <ele>42.953</ele>
        <time>2019-10-21T05:58:04Z</time>
      </trkpt>
      <trkpt lat="43.10263" lon="6.0562">
        <ele>43.014</ele>
        <time>2019-10-21T05:58:37Z</time>
      </trkpt>
      <trkpt lat="43.10177" lon="6.05748">
        <ele>42.752</ele>
        <time>2019-10-21T05:59:07Z</time>
      </trkpt>
      <trkpt lat="43.10115" lon="6.059">
        <ele>45.988</ele>
        <time>2019-10-21T05:59:40Z</time>
      </trkpt>
      <trkpt lat="43.10064" lon="6.06035">
        <ele>52.483</ele>
        <time>2019-10-21T06:00:10Z</time>
      </trkpt>
      <trkpt lat="43.09992" lon="6.06205">
        <ele>51.099</ele>
        <time>2019-10-21T06:00:43Z</time>
      </trkpt>
      <trkpt lat="43.09906" lon="6.06443">
        <ele>46.653</ele>
        <time>2019-10-21T06:01:16Z</time>
      </trkpt>
      <trkpt lat="43.09792" lon="6.06652">
        <ele>41.735</ele>
        <time>2019-10-21T06:01:46Z</time>
      </trkpt>
      <trkpt lat="43.09627" lon="6.06883">
        <ele>34.081</ele>
        <time>2019-10-21T06:02:19Z</time>
      </trkpt>
      <trkpt lat="43.09484" lon="6.07028">
        <ele>29.641</ele>
        <time>2019-10-21T06:02:49Z</time>
      </trkpt>
      <trkpt lat="43.09327" lon="6.07212">
        <ele>27.685</ele>
        <time>2019-10-21T06:03:22Z</time>
      </trkpt>
      <trkpt lat="43.09273" lon="6.07401">
        <ele>21.513</ele>
        <time>2019-10-21T06:03:52Z</time>
      </trkpt>
      <trkpt lat="43.09247" lon="6.07598">
        <ele>20.097</ele>
        <time>2019-10-21T06:04:25Z</time>
      </trkpt>
      <trkpt lat="43.09208" lon="6.07767">
        <ele>21.414</ele>
        <time>2019-10-21T06:04:55Z</time>
      </trkpt>
      <trkpt lat="43.0914" lon="6.07969">
        <ele>15.404</ele>
        <time>2019-10-21T06:05:28Z</time>
      </trkpt>
      <trkpt lat="43.09095" lon="6.08128">
        <ele>18.611</ele>
        <time>2019-10-21T06:06:01Z</time>
      </trkpt>
      <trkpt lat="43.09037" lon="6.08316">
        <ele>15.747</ele>
        <time>2019-10-21T06:06:31Z</time>
      </trkpt>
      <trkpt lat="43.09005" lon="6.08517">
        <ele>17.434</ele>
        <time>2019-10-21T06:07:04Z</time>
      </trkpt>
      <trkpt lat="43.08975" lon="6.08705">
        <ele>16.465</ele>
        <time>2019-10-21T06:07:34Z</time>
      </trkpt>
      <trkpt lat="43.08928" lon="6.0888">
        <ele>19.463</ele>
        <time>2019-10-21T06:08:07Z</time>
      </trkpt>
      <trkpt lat="43.08874" lon="6.09047">
        <ele>21.741</ele>
        <time>2019-10-21T06:08:37Z</time>
      </trkpt>
      <trkpt lat="43.08799" lon="6.0923">
        <ele>24.595</ele>
        <time>2019-10-21T06:09:10Z</time>
      </trkpt>
      <trkpt lat="43.08696" lon="6.09393">
        <ele>26.786</ele>
        <time>2019-10-21T06:09:40Z</time>
      </trkpt>
      <trkpt lat="43.08584" lon="6.09648">
        <ele>19.961</ele>
        <time>2019-10-21T06:10:13Z</time>
      </trkpt>
      <trkpt lat="43.08531" lon="6.09867">
        <ele>16.364</ele>
        <time>2019-10-21T06:10:43Z</time>
      </trkpt>
      <trkpt lat="43.08518" lon="6.1004">
        <ele>21.983</ele>
        <time>2019-10-21T06:11:16Z</time>
      </trkpt>
      <trkpt lat="43.08506" lon="6.10203">
        <ele>30.316</ele>
        <time>2019-10-21T06:11:49Z</time>
      </trkpt>
      <trkpt lat="43.08496" lon="6.10363">
        <ele>30.914</ele>
        <time>2019-10-21T06:12:19Z</time>
      </trkpt>
      <trkpt lat="43.08475" lon="6.10543">
        <ele>33.706</ele>
        <time>2019-10-21T06:12:52Z</time>
      </trkpt>
      <trkpt lat="43.08486" lon="6.10702">
        <ele>34.693</ele>
        <time>2019-10-21T06:13:22Z</time>
      </trkpt>
      <trkpt lat="43.08481" lon="6.10874">
        <ele>42.766</ele>
        <time>2019-10-21T06:13:55Z</time>
      </trkpt>
      <trkpt lat="43.0845" lon="6.11122">
        <ele>35.411</ele>
        <time>2019-10-21T06:14:25Z</time>
      </trkpt>
      <trkpt lat="43.08405" lon="6.11331">
        <ele>29.464</ele>
        <time>2019-10-21T06:14:58Z</time>
      </trkpt>
      <trkpt lat="43.08336" lon="6.11613">
        <ele>18.512</ele>
        <time>2019-10-21T06:15:28Z</time>
      </trkpt>
      <trkpt lat="43.08189" lon="6.11863">
        <ele>12.277</ele>
        <time>2019-10-21T06:16:01Z</time>
      </trkpt>
      <trkpt lat="43.0808" lon="6.12058">
        <ele>6.766</ele>
        <time>2019-10-21T06:16:34Z</time>
      </trkpt>
      <trkpt lat="43.08025" lon="6.12283">
        <ele>1.995</ele>
        <time>2019-10-21T06:17:04Z</time>
      </trkpt>
      <trkpt lat="43.07998" lon="6.12554">
        <ele>2.263</ele>
        <time>2019-10-21T06:17:37Z</time>
      </trkpt>
      <trkpt lat="43.08017" lon="6.12718">
        <ele>1.2</ele>
        <time>2019-10-21T06:18:07Z</time>
      </trkpt>
      <trkpt lat="43.08168" lon="6.12801">
        <ele>4.656</ele>
        <time>2019-10-21T06:18:40Z</time>
      </trkpt>
      <trkpt lat="43.08282" lon="6.12856">
        <ele>7.574</ele>
        <time>2019-10-21T06:19:10Z</time>
      </trkpt>
      <trkpt lat="43.08404" lon="6.12897">
        <ele>9.953</ele>
        <time>2019-10-21T06:19:43Z</time>
      </trkpt>
      <trkpt lat="43.08531" lon="6.12889">
        <ele>10.12</ele>
        <time>2019-10-21T06:20:13Z</time>
      </trkpt>
      <trkpt lat="43.08668" lon="6.12879">
        <ele>9.851</ele>
        <time>2019-10-21T06:20:46Z</time>
      </trkpt>
      <trkpt lat="43.08835" lon="6.1288">
        <ele>10.459</ele>
        <time>2019-10-21T06:21:19Z</time>
      </trkpt>
      <trkpt lat="43.08989" lon="6.12909">
        <ele>10.823</ele>
        <time>2019-10-21T06:21:49Z</time>
      </trkpt>
      <trkpt lat="43.09156" lon="6.12969">
        <ele>12.156</ele>
        <time>2019-10-21T06:22:22Z</time>
      </trkpt>
      <trkpt lat="43.09308" lon="6.13041">
        <ele>10.195</ele>
        <time>2019-10-21T06:22:52Z</time>
      </trkpt>
      <trkpt lat="43.09486" lon="6.13118">
        <ele>11.031</ele>
        <time>2019-10-21T06:23:25Z</time>
      </trkpt>
      <trkpt lat="43.09647" lon="6.13159">
        <ele>10.569</ele>
        <time>2019-10-21T06:23:55Z</time>
      </trkpt>
      <trkpt lat="43.09814" lon="6.13164">
        <ele>10.365</ele>
        <time>2019-10-21T06:24:28Z</time>
      </trkpt>
      <trkpt lat="43.09958" lon="6.13123">
        <ele>11.053</ele>
        <time>2019-10-21T06:24:58Z</time>
      </trkpt>
      <trkpt lat="43.10109" lon="6.13035">
        <ele>12.087</ele>
        <time>2019-10-21T06:25:31Z</time>
      </trkpt>
      <trkpt lat="43.1025" lon="6.12937">
        <ele>13.358</ele>
        <time>2019-10-21T06:26:04Z</time>
      </trkpt>
      <trkpt lat="43.10371" lon="6.12857">
        <ele>13.146</ele>
        <time>2019-10-21T06:26:34Z</time>
      </trkpt>
      <trkpt lat="43.10511" lon="6.12807">
        <ele>17.634</ele>
        <time>2019-10-21T06:27:07Z</time>
      </trkpt>
      <trkpt lat="43.10641" lon="6.12911">
        <ele>14.825</ele>
        <time>2019-10-21T06:27:37Z</time>
      </trkpt>
      <trkpt lat="43.1079" lon="6.13043">
        <ele>14.832</ele>
        <time>2019-10-21T06:28:10Z</time>
      </trkpt>
      <trkpt lat="43.10946" lon="6.13026">
        <ele>13.937</ele>
        <time>2019-10-21T06:28:40Z</time>
      </trkpt>
      <trkpt lat="43.11114" lon="6.13001">
        <ele>18.945</ele>
        <time>2019-10-21T06:29:13Z</time>
      </trkpt>
      <trkpt lat="43.11243" lon="6.12984">
        <ele>28.099</ele>
        <time>2019-10-21T06:29:43Z</time>
      </trkpt>
      <trkpt lat="43.11302" lon="6.12987">
        <ele>24.255</ele>
        <time>2019-10-21T06:30:58Z</time>
      </trkpt>
      <trkpt lat="43.11335" lon="6.13011">
        <ele>22.502</ele>
        <time>2019-10-21T06:31:34Z</time>
      </trkpt>
      <trkpt lat="43.11314" lon="6.12978">
        <ele>16.572</ele>
        <time>2019-10-21T06:35:52Z</time>
      </trkpt>
      <trkpt lat="43.11302" lon="6.13029">
        <ele>19.448</ele>
        <time>2019-10-21T06:36:25Z</time>
      </trkpt>
      <trkpt lat="43.11301" lon="6.13031">
        <ele>21.221</ele>
        <time>2019-10-21T06:38:13.001Z</time>
      </trkpt>
      <trkpt lat="43.11281" lon="6.13034">
        <ele>20.459</ele>
        <time>2019-10-21T06:41:40Z</time>
      </trkpt>
    </trkseg>
  </trk>
</gpx>